Time;durP1;ratioP1;P1;durP2;ratioP2;P2;SDS_P1;SDS_P2;PMS_P1;PMS_P2;Temp;Humidity;BMP_temperature;BMP_pressure;BME280_temperature;BME280_humidity;BME280_pressure;Samples;Min_cycle;Max_cycle;Signal;HPM_P1;HPM_P2
2022/06/25 00:01:33;;;;;;;9.30;3.47;;;20.30;99.90;;;17.54;100.00;99889.59;5032081;28;20050;-84
2022/06/25 00:04:01;;;;;;;7.50;2.97;;;20.20;99.90;;;17.55;100.00;99891.28;5029613;28;20077;-83
2022/06/25 00:06:28;;;;;;;4.88;2.85;;;20.20;99.90;;;17.51;100.00;99898.31;5013856;28;20121;-84
2022/06/25 00:08:56;;;;;;;7.05;2.85;;;20.30;99.90;;;17.54;100.00;99903.34;5012169;28;20053;-84
2022/06/25 00:14:10;;;;;;;8.30;2.90;;;20.20;99.90;;;17.52;100.00;99900.00;5024234;28;20052;-84
2022/06/25 00:16:39;;;;;;;5.50;2.50;;;20.20;99.90;;;17.50;100.00;99901.34;5031313;28;20045;-84
2022/06/25 00:19:06;;;;;;;9.70;2.72;;;20.20;99.90;;;17.44;100.00;99902.31;5028324;28;20072;-84
2022/06/25 00:21:34;;;;;;;7.53;2.75;;;20.20;99.90;;;17.40;100.00;99896.44;5018638;28;20167;-84
2022/06/25 00:24:01;;;;;;;9.10;2.85;;;20.20;99.90;;;17.36;100.00;99898.03;5026711;28;20601;-83
2022/06/25 00:26:28;;;;;;;8.25;2.65;;;20.20;99.90;;;17.33;100.00;99895.78;5031865;28;20069;-84
2022/06/25 00:28:55;;;;;;;7.15;2.65;;;20.10;99.90;;;17.29;100.00;99900.09;5017325;28;20077;-84
2022/06/25 00:31:23;;;;;;;8.35;2.63;;;20.10;99.90;;;17.29;100.00;99905.63;5025546;28;20050;-84
2022/06/25 00:33:52;;;;;;;4.82;2.30;;;20.10;99.90;;;17.26;100.00;99903.34;5023747;28;20049;-84
2022/06/25 00:36:19;;;;;;;5.18;2.72;;;20.10;99.90;;;17.25;100.00;99909.91;5019151;28;20088;-84
2022/06/25 00:38:46;;;;;;;6.95;2.67;;;20.10;99.90;;;17.23;100.00;99912.91;5027387;28;20050;-83
2022/06/25 00:41:14;;;;;;;5.53;3.08;;;20.10;99.90;;;17.23;100.00;99912.91;5028786;28;20041;-84
2022/06/25 00:43:42;;;;;;;9.27;2.67;;;20.10;99.90;;;17.25;100.00;99915.41;5058235;22;20155;-89
2022/06/25 00:46:09;;;;;;;7.95;2.63;;;20.00;99.90;;;17.23;100.00;99923.06;5066921;28;20098;-88
2022/06/25 00:48:37;;;;;;;6.47;2.80;;;20.00;99.90;;;17.27;100.00;99924.25;5089952;28;20048;-88
2022/06/25 00:51:12;;;;;;;5.78;2.88;;;20.00;99.90;;;17.23;100.00;99928.56;5071294;28;20037;-89
2022/06/25 00:53:44;;;;;;;7.93;2.90;;;20.00;99.90;;;17.17;100.00;99922.97;5059701;28;20059;-88
2022/06/25 00:56:15;;;;;;;5.63;2.70;;;20.00;99.90;;;17.20;100.00;99921.66;5065091;28;20055;-88
2022/06/25 00:58:45;;;;;;;5.03;2.60;;;20.00;99.90;;;17.14;100.00;99931.69;5059345;28;20048;-88
2022/06/25 01:01:15;;;;;;;5.90;2.47;;;20.00;99.90;;;17.13;100.00;99927.25;5073997;28;20512;-88
2022/06/25 01:03:43;;;;;;;8.38;2.83;;;20.00;99.90;;;17.16;100.00;99932.28;5069478;28;20063;-88
2022/06/25 01:06:12;;;;;;;6.68;2.67;;;20.00;99.90;;;17.16;100.00;99937.78;5070966;28;20072;-88
2022/06/25 01:08:39;;;;;;;5.57;2.70;;;20.00;99.90;;;17.18;100.00;99943.06;5069792;28;20047;-88
2022/06/25 01:11:07;;;;;;;10.52;3.03;;;20.20;99.90;;;17.14;100.00;99939.94;5069759;28;20048;-88
2022/06/25 01:13:35;;;;;;;6.63;2.65;;;20.00;99.90;;;17.16;100.00;99943.28;5065996;28;20045;-88
2022/06/25 01:16:03;;;;;;;7.60;2.80;;;20.00;99.90;;;17.15;100.00;99949.88;5064209;28;20044;-88
2022/06/25 01:18:30;;;;;;;7.93;3.00;;;19.90;99.90;;;17.13;100.00;99963.00;5067851;28;20324;-88
2022/06/25 01:20:58;;;;;;;6.75;2.88;;;19.90;99.90;;;17.15;100.00;99952.63;5066020;28;20239;-88
2022/06/25 01:23:26;;;;;;;6.13;2.63;;;19.90;99.90;;;17.10;100.00;99955.25;5061924;28;20447;-88
2022/06/25 01:25:54;;;;;;;8.07;2.80;;;19.90;99.90;;;17.07;100.00;99963.16;5069504;28;20110;-89
2022/06/25 01:28:22;;;;;;;6.78;3.00;;;19.80;99.90;;;17.08;100.00;99964.84;5070121;28;20506;-89
2022/06/25 01:30:49;;;;;;;8.40;2.90;;;19.90;99.90;;;17.08;100.00;99960.16;5065791;28;20077;-89
2022/06/25 01:33:16;;;;;;;7.82;2.95;;;19.90;99.90;;;17.02;100.00;99966.63;5060698;28;20047;-88
2022/06/25 01:35:43;;;;;;;9.27;2.78;;;19.80;99.90;;;16.98;100.00;99965.41;5062813;28;20490;-88
2022/06/25 01:38:11;;;;;;;7.35;3.25;;;19.80;99.90;;;16.98;100.00;99968.16;5081474;28;20047;-89
2022/06/25 01:40:39;;;;;;;5.90;2.78;;;19.80;99.90;;;16.96;100.00;99967.56;5069084;28;20072;-88
2022/06/25 01:43:06;;;;;;;7.97;2.78;;;19.80;99.90;;;16.95;100.00;99972.25;5068690;28;20055;-88
2022/06/25 01:45:37;;;;;;;8.95;2.78;;;19.80;99.90;;;16.95;100.00;99974.16;5069406;28;20048;-88
2022/06/25 01:48:07;;;;;;;5.20;2.55;;;19.80;99.90;;;16.93;100.00;99970.81;5068696;28;20040;-88
2022/06/25 01:50:37;;;;;;;7.90;3.20;;;19.80;99.90;;;16.93;100.00;99974.41;5064122;28;20045;-88
2022/06/25 01:53:04;;;;;;;11.88;3.00;;;19.70;99.90;;;16.91;100.00;99976.56;5065700;28;20046;-88
2022/06/25 01:55:32;;;;;;;7.25;2.90;;;19.80;99.90;;;16.87;100.00;99975.38;5053390;28;20408;-88
2022/06/25 01:58:01;;;;;;;7.70;3.20;;;19.70;99.90;;;16.85;100.00;99976.66;5064414;28;20110;-87
2022/06/25 02:00:31;;;;;;;6.13;3.15;;;19.80;99.90;;;16.83;100.00;99978.81;5068325;28;20498;-87
2022/06/25 02:03:05;;;;;;;8.48;3.30;;;19.80;99.90;;;16.84;100.00;99988.75;5063957;28;20044;-88
2022/06/25 02:08:19;;;;;;;6.32;3.33;;;19.70;99.90;;;16.80;100.00;99983.69;5073836;28;20052;-88
2022/06/25 02:10:48;;;;;;;8.00;3.17;;;19.80;99.90;;;16.87;100.00;99985.50;5068370;28;20051;-87
2022/06/25 02:13:17;;;;;;;8.20;3.80;;;19.70;99.90;;;16.85;100.00;99984.91;5068818;28;20094;-88
2022/06/25 02:15:44;;;;;;;10.27;4.00;;;19.70;99.90;;;16.86;100.00;99990.16;5067709;28;20068;-87
2022/06/25 02:18:12;;;;;;;9.23;3.88;;;19.70;99.90;;;16.85;100.00;99995.91;5064456;28;20094;-88
2022/06/25 02:20:42;;;;;;;11.13;4.28;;;19.70;99.90;;;16.81;100.00;99993.63;5080059;28;20472;-88
2022/06/25 02:23:11;;;;;;;9.73;3.70;;;19.70;99.90;;;16.80;100.00;99991.94;5066275;28;20048;-88
2022/06/25 02:25:38;;;;;;;10.43;4.22;;;19.70;99.90;;;16.79;100.00;99993.03;5061223;28;20080;-88
2022/06/25 02:28:07;;;;;;;10.05;3.55;;;19.70;99.90;;;16.73;100.00;99991.19;5064682;28;20037;-88
2022/06/25 02:30:36;;;;;;;14.00;4.18;;;19.70;99.90;;;16.74;100.00;99990.13;5058272;28;20086;-88
2022/06/25 02:33:04;;;;;;;11.68;4.68;;;19.60;99.90;;;16.74;100.00;99989.31;5064465;28;20123;-88
2022/06/25 02:35:31;;;;;;;10.43;4.97;;;19.60;99.90;;;16.73;100.00;99996.69;5066917;28;20650;-87
2022/06/25 02:38:00;;;;;;;10.75;4.28;;;19.60;99.90;;;16.76;100.00;100000.91;5068230;28;20048;-88
2022/06/25 02:40:30;;;;;;;11.55;5.18;;;19.60;99.90;;;16.73;100.00;100001.38;5063122;28;20093;-88
2022/06/25 02:42:57;;;;;;;12.70;4.97;;;19.60;99.90;;;16.71;100.00;100003.53;5062508;28;20053;-89
2022/06/25 02:45:36;;;;;;;10.57;4.82;;;19.60;99.90;;;16.71;100.00;100007.09;5067055;28;20055;-87
2022/06/25 02:48:04;;;;;;;10.98;5.50;;;19.60;99.90;;;16.68;100.00;99999.34;5067421;28;20052;-88
2022/06/25 02:50:31;;;;;;;14.55;5.10;;;19.60;99.90;;;16.67;100.00;100011.41;5065503;28;20140;-88
2022/06/25 02:52:59;;;;;;;15.30;5.35;;;19.60;99.90;;;16.65;100.00;100016.28;5067603;28;20086;-88
2022/06/25 03:00:55;;;;;;;13.15;4.50;;;19.50;99.90;;;16.62;100.00;100022.28;5053232;28;20521;-89
2022/06/25 03:03:22;;;;;;;17.20;5.13;;;19.50;99.90;;;16.59;100.00;100020.00;5064157;28;20052;-88
2022/06/25 03:05:51;;;;;;;9.98;4.63;;;19.50;99.90;;;16.63;100.00;100025.84;5066323;28;20044;-88
2022/06/25 03:08:19;;;;;;;9.82;4.78;;;19.50;99.90;;;16.60;100.00;100030.75;5052802;28;20094;-88
2022/06/25 03:10:46;;;;;;;6.82;3.92;;;19.50;99.90;;;16.60;100.00;100025.25;5060150;28;20051;-88
2022/06/25 03:13:13;;;;;;;9.15;4.05;;;19.50;99.90;;;16.60;100.00;100040.88;5057110;28;20137;-88
2022/06/25 03:15:41;;;;;;;9.40;3.90;;;19.50;99.90;;;16.65;100.00;100032.78;5067885;28;20037;-88
2022/06/25 03:18:10;;;;;;;14.52;4.38;;;19.50;99.90;;;16.63;100.00;100037.69;5063789;28;20053;-88
2022/06/25 03:20:43;;;;;;;8.63;3.88;;;19.50;99.90;;;16.64;100.00;100041.25;5069025;28;20132;-88
2022/06/25 03:23:12;;;;;;;9.18;4.32;;;19.50;99.90;;;16.62;100.00;100038.75;5069447;28;20135;-88
2022/06/25 03:25:42;;;;;;;9.40;4.03;;;19.50;99.90;;;16.66;100.00;100036.34;5066777;28;20041;-87
2022/06/25 03:28:15;;;;;;;9.98;3.80;;;19.50;99.90;;;16.68;100.00;100032.31;5069075;28;20126;-88
2022/06/25 03:30:46;;;;;;;12.23;3.53;;;19.50;99.90;;;16.69;100.00;100033.16;5067144;28;20203;-88
2022/06/25 03:33:19;;;;;;;8.00;3.80;;;19.50;99.90;;;16.68;100.00;100032.31;5070635;28;20040;-88
2022/06/25 03:35:50;;;;;;;6.93;3.28;;;19.50;99.90;;;16.68;100.00;100032.31;5070236;28;20055;-87
2022/06/25 03:38:25;;;;;;;6.18;3.28;;;19.50;99.90;;;16.68;100.00;100032.31;5071037;28;20117;-90
2022/06/25 03:43:38;;;;;;;8.55;3.70;;;19.50;99.90;;;16.69;100.00;100028.47;5065351;28;20045;-87
2022/06/25 03:46:07;;;;;;;11.45;3.45;;;19.50;99.90;;;16.72;100.00;100036.25;5070953;28;20048;-87
2022/06/25 03:48:39;;;;;;;9.73;3.75;;;19.50;99.90;;;16.72;100.00;100040.94;5064652;28;20044;-91
2022/06/25 03:51:47;;;;;;;8.82;3.50;;;19.40;99.90;;;16.76;100.00;100042.13;5065467;28;20064;-91
2022/06/25 03:54:14;;;;;;;8.15;3.72;;;19.50;99.90;;;16.80;100.00;100051.56;5070538;28;20045;-91
2022/06/25 03:56:44;;;;;;;8.05;3.53;;;19.50;99.90;;;16.81;100.00;100047.72;5071445;28;20041;-90
2022/06/25 03:59:12;;;;;;;7.75;3.28;;;19.50;99.90;;;16.90;100.00;100045.50;5070673;28;20044;-89
2022/06/25 04:01:42;;;;;;;8.38;3.85;;;19.50;99.90;;;16.94;100.00;100050.28;5057636;28;20048;-86
2022/06/25 04:04:16;;;;;;;8.35;3.55;;;19.50;99.90;;;16.97;100.00;100051.72;5070355;28;20128;-87
2022/06/25 04:06:45;;;;;;;7.20;3.58;;;19.50;99.90;;;17.02;100.00;100053.75;5070706;28;20079;-87
2022/06/25 04:09:17;;;;;;;8.65;3.22;;;19.60;99.90;;;17.01;100.00;100050.19;5069881;28;20060;-88
2022/06/25 04:11:46;;;;;;;6.93;3.40;;;19.60;99.90;;;17.07;100.00;100053.88;5070428;28;20429;-88
2022/06/25 04:14:15;;;;;;;5.65;3.50;;;19.60;99.90;;;17.10;100.00;100051.50;5070200;28;20051;-87
2022/06/25 04:16:42;;;;;;;5.63;3.50;;;19.60;99.90;;;17.13;100.00;100064.75;5063001;28;20041;-89
2022/06/25 04:19:22;;;;;;;6.22;3.65;;;19.60;99.90;;;17.18;100.00;100059.38;5069568;28;20074;-87
2022/06/25 04:21:51;;;;;;;7.47;3.72;;;19.60;99.90;;;17.23;100.00;100063.31;5067257;28;20060;-89
2022/06/25 04:24:19;;;;;;;11.80;3.72;;;19.60;99.90;;;17.32;100.00;100064.63;5059790;28;20048;-89
2022/06/25 04:26:47;;;;;;;7.28;3.75;;;19.70;99.90;;;17.39;100.00;100070.84;5067114;28;20084;-89
2022/06/25 04:29:14;;;;;;;9.00;3.78;;;19.70;99.90;;;17.42;100.00;100066.78;5066929;28;20098;-89
2022/06/25 04:31:52;;;;;;;7.82;3.38;;;19.70;99.90;;;17.50;100.00;100067.25;5074531;28;20089;-87
2022/06/25 04:34:42;;;;;;;7.47;3.60;;;19.70;99.90;;;17.64;100.00;100067.81;5068044;28;20047;-87
2022/06/25 04:37:09;;;;;;;7.95;3.28;;;19.80;99.90;;;17.79;100.00;100070.06;5070187;28;20047;-87
2022/06/25 04:39:38;;;;;;;8.48;3.50;;;19.90;99.90;;;17.93;100.00;100074.25;5068241;28;20147;-89
2022/06/25 04:42:06;;;;;;;6.20;3.53;;;20.00;99.90;;;18.07;100.00;100072.03;5055538;28;20521;-88
2022/06/25 04:44:37;;;;;;;5.95;3.13;;;20.00;99.90;;;18.16;100.00;100069.72;5067242;28;20098;-87
2022/06/25 04:47:09;;;;;;;7.45;3.10;;;20.10;99.90;;;18.31;100.00;100077.44;5066676;28;20045;-87
2022/06/25 04:49:51;;;;;;;7.07;3.33;;;20.20;99.90;;;18.49;100.00;100074.50;5067007;28;20060;-89
2022/06/25 04:52:23;;;;;;;8.95;3.20;;;20.30;99.90;;;18.62;100.00;100062.31;5069985;28;20060;-90
2022/06/25 04:54:52;;;;;;;6.55;3.22;;;20.40;99.90;;;18.75;100.00;100073.03;5077587;28;20503;-89
2022/06/25 04:57:22;;;;;;;5.40;2.70;;;20.40;99.90;;;18.92;100.00;100080.47;5069705;28;20638;-87
2022/06/25 05:00:18;;;;;;;7.55;3.28;;;20.50;99.90;;;19.08;100.00;100076.91;5053626;28;20499;-88
2022/06/25 05:02:47;;;;;;;8.65;3.38;;;20.60;99.90;;;19.23;100.00;100075.44;5061640;28;20049;-87
2022/06/25 05:05:19;;;;;;;6.22;3.17;;;20.70;99.90;;;19.27;100.00;100073.88;5063033;28;20411;-88
2022/06/25 05:08:02;;;;;;;4.45;2.78;;;20.80;99.90;;;19.44;100.00;100073.81;5066187;28;20040;-88
2022/06/25 05:10:29;;;;;;;6.40;2.75;;;20.80;99.90;;;19.54;100.00;100077.56;5059542;28;20475;-92
2022/06/25 05:13:15;;;;;;;5.70;3.13;;;20.90;99.90;;;19.60;100.00;100077.66;5065030;28;20045;-92
2022/06/25 05:15:54;;;;;;;8.18;3.42;;;21.00;99.90;;;19.62;100.00;100073.53;5069206;28;20048;-90
2022/06/25 05:18:21;;;;;;;6.50;2.78;;;21.10;99.90;;;19.72;100.00;100078.38;5059912;28;20044;-86
2022/06/25 05:20:52;;;;;;;12.95;3.70;;;21.20;99.90;;;19.76;100.00;100081.47;5066042;28;20059;-85
2022/06/25 05:23:20;;;;;;;5.53;2.72;;;21.20;99.90;;;19.76;100.00;100084.22;5065994;28;20836;-88
2022/06/25 05:25:49;;;;;;;5.35;2.80;;;21.20;99.90;;;19.71;100.00;100080.28;5063069;28;20506;-87
2022/06/25 05:28:19;;;;;;;9.93;3.20;;;21.20;99.90;;;19.65;100.00;100086.00;5069228;28;20041;-87
2022/06/25 05:30:48;;;;;;;6.15;3.13;;;21.20;99.90;;;19.59;100.00;100090.63;5068959;28;20044;-88
2022/06/25 05:33:15;;;;;;;7.78;2.90;;;21.20;99.90;;;19.61;100.00;100085.69;5067439;28;20130;-88
2022/06/25 05:35:42;;;;;;;6.10;2.97;;;21.20;99.90;;;19.59;100.00;100092.53;5064895;28;20131;-88
2022/06/25 05:38:11;;;;;;;7.13;2.95;;;21.20;99.90;;;19.58;100.00;100096.38;5068753;28;20094;-89
2022/06/25 05:40:40;;;;;;;6.70;3.05;;;21.20;99.90;;;19.62;100.00;100106.66;5070073;28;20508;-88
2022/06/25 05:43:07;;;;;;;5.90;2.75;;;21.20;99.90;;;19.59;100.00;100107.19;5070045;28;20041;-87
2022/06/25 05:45:35;;;;;;;5.15;3.15;;;21.20;99.90;;;19.62;100.00;100116.88;5070497;28;20044;-88
2022/06/25 05:48:03;;;;;;;10.25;3.70;;;21.20;99.90;;;19.64;100.00;100112.75;5070058;28;20122;-87
2022/06/25 05:50:30;;;;;;;7.43;2.90;;;21.20;99.90;;;19.86;100.00;100117.50;5069924;28;20041;-88
2022/06/25 05:52:58;;;;;;;6.03;3.30;;;21.30;99.90;;;20.34;100.00;100113.13;5070098;28;20041;-88
2022/06/25 05:55:26;;;;;;;7.05;2.90;;;21.50;99.90;;;21.48;100.00;100108.38;5069895;28;20052;-88
2022/06/25 05:57:55;;;;;;;5.18;2.75;;;21.60;99.90;;;23.36;91.44;100121.38;5057540;28;20134;-88
2022/06/25 06:00:22;;;;;;;7.90;3.00;;;22.00;99.90;;;25.78;78.82;100115.25;5067278;28;20193;-88
2022/06/25 06:02:50;;;;;;;6.63;2.95;;;22.40;99.90;;;27.56;67.06;100116.56;5065021;28;20083;-88
2022/06/25 06:05:17;;;;;;;5.35;2.75;;;22.70;99.90;;;29.20;58.41;100117.78;5062992;28;20119;-88
2022/06/25 06:07:44;;;;;;;7.47;2.65;;;23.10;99.90;;;30.60;54.27;100108.78;5069546;28;20477;-88
2022/06/25 06:10:12;;;;;;;7.10;2.92;;;23.40;99.90;;;31.39;50.21;100117.16;5069389;28;20052;-88
2022/06/25 06:12:40;;;;;;;7.32;2.85;;;23.90;99.90;;;32.53;47.07;100114.69;5066433;28;20090;-87
2022/06/25 06:15:09;;;;;;;6.50;2.40;;;24.20;99.90;;;33.31;44.40;100116.03;5069434;28;20044;-87
2022/06/25 06:17:37;;;;;;;7.43;2.40;;;24.50;99.10;;;33.87;42.58;100113.59;5069456;28;20686;-86
2022/06/25 06:20:08;;;;;;;4.88;2.28;;;24.80;97.90;;;34.15;41.07;100124.16;5049129;28;20120;-86
2022/06/25 06:22:36;;;;;;;7.93;2.72;;;25.10;96.50;;;34.62;39.62;100125.66;5055281;28;20133;-88
2022/06/25 06:25:07;;;;;;;7.63;2.78;;;25.30;95.00;;;34.80;38.97;100131.88;5069532;28;20045;-87
2022/06/25 06:27:34;;;;;;;4.60;2.03;;;25.60;94.00;;;34.84;38.01;100133.63;5069651;28;20131;-88
2022/06/25 06:30:03;;;;;;;8.15;2.30;;;25.80;92.80;;;34.96;38.01;100131.94;5069583;28;20082;-88
2022/06/25 06:32:30;;;;;;;6.53;2.33;;;25.90;92.20;;;35.34;36.29;100133.44;5069378;28;20045;-89
2022/06/25 06:34:57;;;;;;;5.78;2.33;;;25.90;91.50;;;35.08;37.05;100136.72;5069198;28;20043;-88
2022/06/25 06:37:24;;;;;;;5.65;2.15;;;25.90;91.70;;;31.75;43.67;100144.06;5062631;28;20041;-88
2022/06/25 06:39:52;;;;;;;6.40;2.22;;;25.90;92.40;;;28.83;51.22;100140.25;5059826;28;20701;-84
2022/06/25 06:42:19;;;;;;;7.65;2.25;;;25.80;92.90;;;26.82;58.55;100153.53;5059094;28;20094;-84
2022/06/25 06:44:47;;;;;;;6.72;2.28;;;25.70;93.40;;;25.61;62.21;100150.00;5083673;23;20045;-83
2022/06/25 06:47:16;;;;;;;6.07;2.30;;;25.60;92.50;;;24.73;68.82;100163.78;5046984;28;20518;-87
2022/06/25 06:49:43;;;;;;;3.92;1.80;;;25.40;93.80;;;24.38;71.77;100160.00;5039959;28;20041;-87
2022/06/25 06:52:10;;;;;;;8.60;2.03;;;25.30;94.60;;;24.15;73.02;100158.72;5041230;28;20049;-88
2022/06/25 06:54:38;;;;;;;5.85;2.10;;;25.20;94.60;;;24.00;73.43;100156.81;5048775;28;20494;-94
2022/06/25 06:57:06;;;;;;;5.50;1.88;;;25.10;94.60;;;23.86;74.09;100153.00;5035804;28;20495;-90
2022/06/25 06:59:33;;;;;;;6.53;2.35;;;25.00;94.70;;;23.75;75.22;100159.66;5030221;28;20393;-92
2022/06/25 07:02:00;;;;;;;4.43;2.03;;;24.80;95.40;;;23.74;74.80;100158.84;5030974;28;20415;-93
2022/06/25 07:04:29;;;;;;;5.32;2.13;;;24.70;94.70;;;23.64;76.59;100150.50;5028601;28;20049;-91
2022/06/25 07:06:56;;;;;;;6.45;1.80;;;24.70;96.00;;;23.54;75.53;100150.53;5029188;28;20041;-90
2022/06/25 07:09:23;;;;;;;10.23;2.40;;;24.60;95.20;;;23.45;77.02;100152.22;5034171;28;20037;-85
2022/06/25 07:11:50;;;;;;;7.88;2.20;;;24.50;96.20;;;23.31;77.06;100165.84;5029329;28;20049;-92
2022/06/25 07:14:18;;;;;;;5.20;2.00;;;24.40;96.10;;;23.28;78.04;100167.19;5040875;28;20131;-82
2022/06/25 07:16:45;;;;;;;5.00;2.33;;;24.30;96.20;;;23.28;76.47;100160.81;5023989;28;20287;-88
2022/06/25 07:19:12;;;;;;;8.13;2.00;;;24.30;96.00;;;23.23;79.11;100167.22;5026189;28;20045;-87
2022/06/25 07:21:41;;;;;;;7.68;2.00;;;24.20;96.90;;;23.17;77.77;100166.38;5023841;28;20126;-87
2022/06/25 07:24:08;;;;;;;7.45;2.08;;;24.20;96.60;;;23.11;79.86;100163.88;5025331;28;20103;-89
2022/06/25 07:26:35;;;;;;;5.35;2.08;;;24.20;97.10;;;23.16;80.23;100161.09;5025808;28;20048;-86
2022/06/25 07:29:03;;;;;;;5.03;1.92;;;24.10;97.60;;;23.12;79.21;100155.28;5016791;28;20049;-90
2022/06/25 07:31:30;;;;;;;5.40;2.05;;;24.10;97.10;;;23.06;80.27;100163.88;5025482;28;20041;-89
2022/06/25 07:33:58;;;;;;;8.43;2.28;;;24.10;97.40;;;23.06;80.01;100158.34;5019979;28;20049;-89
2022/06/25 07:36:25;;;;;;;5.63;1.98;;;24.00;97.90;;;23.01;80.28;100159.94;5028295;28;20055;-88
2022/06/25 07:38:53;;;;;;;4.07;1.95;;;24.00;97.90;;;22.95;84.10;100157.44;5010342;28;20121;-87
2022/06/25 07:41:21;;;;;;;8.57;2.05;;;24.00;99.40;;;22.95;82.59;100151.91;5025097;28;20407;-87
2022/06/25 07:43:48;;;;;;;7.80;2.00;;;24.00;98.50;;;22.95;82.59;100158.28;5012366;28;20048;-87
2022/06/25 07:46:15;;;;;;;5.00;1.88;;;24.00;99.00;;;22.94;86.32;100164.94;5026216;28;20052;-87
2022/06/25 07:48:42;;;;;;;7.97;2.00;;;23.90;99.90;;;22.98;82.89;100163.28;5027200;28;20048;-87
2022/06/25 07:53:56;;;;;;;7.90;2.10;;;23.90;97.00;;;22.90;78.14;100169.34;5011872;28;20060;-87
2022/06/25 07:56:24;;;;;;;4.43;2.00;;;23.90;96.80;;;22.85;79.75;100169.38;5027294;28;20441;-87
2022/06/25 07:58:51;;;;;;;4.80;1.80;;;23.90;97.10;;;22.89;78.42;100158.56;5026983;28;20051;-87
2022/06/25 08:01:18;;;;;;;3.58;1.63;;;23.90;96.70;;;22.88;77.88;100163.25;5011556;28;20046;-87
2022/06/25 08:03:45;;;;;;;5.47;1.70;;;23.90;96.20;;;23.01;80.96;100162.72;5009608;28;20125;-87
2022/06/25 08:06:13;;;;;;;4.63;1.80;;;23.90;98.20;;;23.03;78.26;100165.25;5019117;28;20125;-86
2022/06/25 08:08:41;;;;;;;5.95;2.00;;;23.90;96.40;;;23.08;79.82;100161.66;5018511;28;20034;-86
2022/06/25 08:11:10;;;;;;;5.43;1.73;;;23.90;97.70;;;23.11;78.35;100167.47;5030687;28;20049;-87
2022/06/25 08:13:37;;;;;;;5.68;1.83;;;23.90;96.80;;;23.10;74.91;100165.81;5026297;28;20060;-87
2022/06/25 08:16:05;;;;;;;5.35;2.20;;;23.90;94.60;;;23.11;79.58;100172.19;5028091;28;20038;-86
2022/06/25 08:18:33;;;;;;;5.18;2.10;;;23.90;97.70;;;23.09;75.27;100163.31;5024249;28;20069;-85
2022/06/25 08:21:00;;;;;;;7.72;2.15;;;23.90;95.80;;;23.14;77.83;100172.47;5028489;28;20045;-87
2022/06/25 08:23:28;;;;;;;4.93;2.05;;;23.90;97.30;;;23.07;77.79;100171.09;5024297;28;20496;-86
2022/06/25 08:25:55;;;;;;;6.05;1.95;;;23.90;96.70;;;23.00;75.92;100171.34;5032049;28;20046;-85
2022/06/25 08:28:24;;;;;;;9.15;2.25;;;23.90;95.30;;;23.06;78.97;100169.44;5025170;28;20029;-92
2022/06/25 08:30:51;;;;;;;7.78;2.10;;;23.90;97.30;;;23.07;77.57;100165.53;5031591;28;20053;-93
2022/06/25 08:33:18;;;;;;;8.40;2.30;;;23.90;96.50;;;22.87;76.99;100172.72;5042661;28;20312;-93
2022/06/25 08:35:45;;;;;;;7.13;2.00;;;23.90;95.90;;;22.86;76.87;100168.25;5051976;28;20051;-91
2022/06/25 08:38:13;;;;;;;8.90;2.38;;;23.80;95.40;;;23.05;78.76;100174.13;5032721;28;20140;-91
2022/06/25 08:40:40;;;;;;;6.57;2.40;;;23.80;97.50;;;23.16;77.42;100169.44;5030811;28;20048;-91
2022/06/25 08:43:07;;;;;;;5.10;2.28;;;23.90;96.40;;;23.19;75.85;100168.91;5030555;28;20049;-90
2022/06/25 08:45:36;;;;;;;7.22;2.25;;;23.80;95.60;;;23.24;75.39;100171.66;5024228;28;20448;-89
2022/06/25 08:48:12;;;;;;;7.60;2.85;;;23.90;95.20;;;23.08;73.71;100178.31;5029492;28;20069;-90
2022/06/25 08:50:40;;;;;;;6.72;2.33;;;23.90;94.10;;;23.14;75.10;100175.25;5028940;28;20061;-91
2022/06/25 08:53:08;;;;;;;5.90;2.20;;;23.80;95.20;;;23.33;74.18;100174.72;5030799;28;20054;-90
2022/06/25 08:55:38;;;;;;;8.70;2.42;;;23.90;95.00;;;23.43;74.41;100174.69;5031558;28;20041;-91
2022/06/25 08:58:07;;;;;;;10.87;2.60;;;23.90;94.90;;;23.27;72.90;100171.09;5031142;28;20045;-90
2022/06/25 09:00:38;;;;;;;6.90;2.08;;;23.90;93.10;;;23.23;73.75;100173.59;5028992;28;20504;-88
2022/06/25 09:03:07;;;;;;;6.57;2.60;;;23.90;94.20;;;23.40;76.54;100165.00;5035877;28;20064;-89
2022/06/25 09:05:37;;;;;;;7.82;2.28;;;23.90;96.90;;;23.51;75.15;100167.75;5028405;28;20120;-85
2022/06/25 09:08:06;;;;;;;11.00;2.63;;;24.00;96.10;;;23.45;73.89;100160.53;5046051;28;20139;-87
2022/06/25 09:10:35;;;;;;;6.40;2.20;;;24.10;94.70;;;23.34;71.50;100170.81;5028941;28;20100;-85
2022/06/25 09:13:05;;;;;;;8.50;2.40;;;24.00;93.20;;;23.18;72.57;100172.75;5024695;28;20499;-83
2022/06/25 09:15:37;;;;;;;8.02;2.38;;;24.00;93.90;;;23.22;74.01;100166.38;5027159;28;20081;-84
2022/06/25 09:18:10;;;;;;;12.80;3.20;;;24.00;94.20;;;23.35;74.67;100170.53;5012684;28;20046;-82
2022/06/25 09:20:54;;;;;;;5.40;2.65;;;24.00;95.30;;;23.43;74.53;100164.41;5029275;28;20073;-82
2022/06/25 09:23:22;;;;;;;8.38;2.90;;;24.00;94.90;;;23.62;77.70;100161.88;5020122;28;20037;-82
2022/06/25 09:26:02;;;;;;;8.70;2.65;;;24.10;98.20;;;23.83;75.20;100166.63;5029220;28;20518;-82
2022/06/25 09:28:31;;;;;;;9.40;2.30;;;24.20;96.30;;;23.94;74.54;100168.25;5027678;28;20042;-82
2022/06/25 09:31:02;;;;;;;5.82;2.08;;;24.20;95.30;;;24.00;71.72;100161.56;5024035;28;20507;-83
2022/06/25 09:33:30;;;;;;;7.43;2.08;;;24.30;94.30;;;24.08;72.95;100158.19;5029435;28;20044;-83
2022/06/25 09:35:57;;;;;;;4.20;1.90;;;24.40;94.90;;;24.11;69.96;100167.94;5030443;28;20053;-82
2022/06/25 09:38:25;;;;;;;4.97;1.90;;;24.40;92.50;;;24.11;69.02;100154.03;5027788;28;20075;-82
2022/06/25 09:40:56;;;;;;;4.68;1.90;;;24.40;92.00;;;24.13;71.07;100149.84;5016847;28;20095;-83
2022/06/25 09:43:24;;;;;;;;;;;24.40;93.70;;;24.13;69.19;100152.63;5030566;28;20106;-83
2022/06/25 09:45:54;;;;;;;5.72;2.10;;;24.40;92.20;;;24.13;68.92;100155.41;5021906;28;20260;-83
2022/06/25 09:48:24;;;;;;;6.13;1.87;;;24.50;92.10;;;24.19;68.39;100154.25;5010591;28;20044;-84
2022/06/25 09:51:11;;;;;;;9.80;2.17;;;24.50;91.50;;;24.22;68.18;100155.66;5019492;28;20503;-83
2022/06/25 09:53:48;;;;;;;9.90;2.47;;;24.50;91.50;;;24.22;68.63;100158.44;5027667;28;20045;-84
2022/06/25 09:56:18;;;;;;;8.02;2.70;;;24.50;91.90;;;24.33;69.00;100154.50;5030803;28;20464;-84
2022/06/25 09:58:47;;;;;;;7.63;2.30;;;24.60;92.40;;;24.39;68.98;100160.88;5023824;28;20049;-84
2022/06/25 10:01:17;;;;;;;7.40;2.60;;;24.60;92.50;;;24.34;68.41;100149.75;5030285;28;20496;-83
2022/06/25 10:03:47;;;;;;;8.83;2.60;;;24.60;91.30;;;24.40;70.07;100160.56;5016200;28;20072;-83
2022/06/25 10:06:16;;;;;;;7.13;2.10;;;24.60;93.20;;;24.47;67.06;100154.69;5027476;28;20041;-83
2022/06/25 10:08:49;;;;;;;6.65;1.90;;;24.60;91.10;;;24.57;68.26;100160.22;5028030;28;20045;-86
2022/06/25 10:11:19;;;;;;;8.82;2.58;;;24.70;91.90;;;24.62;67.58;100150.19;5033837;28;20067;-85
2022/06/25 10:13:48;;;;;;;7.78;2.33;;;24.80;91.30;;;24.62;66.58;100150.19;5028164;28;20099;-85
2022/06/25 10:16:18;;;;;;;7.15;2.20;;;24.80;90.40;;;24.58;66.17;100153.56;5043192;28;20049;-84
2022/06/25 10:18:49;;;;;;;5.85;2.15;;;24.80;90.30;;;24.47;67.88;100149.13;5025562;28;20052;-82
2022/06/25 10:21:17;;;;;;;7.18;2.58;;;24.80;91.10;;;24.40;69.77;100148.59;5027543;28;20064;-83
2022/06/25 10:23:46;;;;;;;4.60;2.08;;;24.80;92.00;;;24.28;69.78;100150.91;5019785;28;20144;-83
2022/06/25 10:26:13;;;;;;;9.68;2.50;;;24.80;91.60;;;24.12;65.91;100142.63;5016152;28;20116;-81
2022/06/25 10:28:41;;;;;;;6.45;2.35;;;24.80;89.20;;;24.05;67.17;100144.88;5015469;28;20053;-80
2022/06/25 10:31:14;;;;;;;3.85;1.70;;;24.70;89.80;;;24.01;69.84;100143.78;5027949;28;20442;-88
2022/06/25 10:33:56;;;;;;;4.68;2.00;;;24.70;91.70;;;23.95;68.17;100142.13;5028938;28;20045;-88
2022/06/25 10:36:45;;;;;;;5.93;1.90;;;24.70;90.50;;;23.79;66.81;100142.16;5023666;28;20046;-89